Terminal Aerodrome Forecast
Issued by NWS

Home | Current Version | Previous Version | Text Only | Print | Product List | Glossary On
Versions: 1 2 3 4 5 6 7 8 9 10 11 12 13 14 15 16 17 18 19 20
000
FTUS43 KEAX 292329
TAFMKC
TAF
KMKC 292329Z 3000/3024 01006KT P6SM BKN035
      TEMPO 3000/3003 BKN025
     FM300800 04005KT 6SM BR OVC018
     FM301000 05005KT 4SM BR OVC008
     FM301500 05006KT P6SM BKN018
     FM301800 13007KT P6SM SCT025 BKN035=

USA.gov is the U.S. government's official web portal to all federal, state and local government web resources and services.